Time;durP1;ratioP1;P1;durP2;ratioP2;P2;SDS_P1;SDS_P2;PMS_P1;PMS_P2;Temp;Humidity;BMP_temperature;BMP_pressure;BME280_temperature;BME280_humidity;BME280_pressure;Samples;Min_cycle;Max_cycle;Signal;HPM_P1;HPM_P2
2023/12/01 00:00:55;;;;;;;30.80;15.13;;;-4.40;99.90;;;;;;5222331;28;20187;-46
2023/12/01 00:03:26;;;;;;;24.97;13.00;;;-4.40;99.90;;;;;;5227565;28;20675;-47
2023/12/01 00:05:56;;;;;;;24.17;12.30;;;-4.30;99.90;;;;;;5226070;28;20270;-48
2023/12/01 00:08:27;;;;;;;27.57;12.40;;;-4.30;99.90;;;;;;5250032;28;20204;-47
2023/12/01 00:10:57;;;;;;;25.23;12.50;;;-4.30;99.90;;;;;;5242347;28;20175;-49
2023/12/01 00:13:28;;;;;;;20.47;11.30;;;-4.20;99.90;;;;;;5243787;28;20186;-48
2023/12/01 00:15:59;;;;;;;22.80;12.10;;;-4.20;99.90;;;;;;5226836;28;20286;-48
2023/12/01 00:18:29;;;;;;;20.47;11.13;;;-4.10;99.90;;;;;;5230458;28;21009;-48
2023/12/01 00:21:00;;;;;;;20.70;10.73;;;-4.00;99.90;;;;;;5249107;28;20690;-49
2023/12/01 00:23:31;;;;;;;18.40;11.40;;;-4.00;99.90;;;;;;5250305;28;20222;-48
2023/12/01 00:26:02;;;;;;;18.57;9.90;;;-3.90;99.90;;;;;;5229953;28;20183;-50
2023/12/01 00:28:32;;;;;;;21.07;10.37;;;-3.90;99.90;;;;;;5230299;28;20215;-48
2023/12/01 00:31:03;;;;;;;19.70;10.13;;;-3.90;99.90;;;;;;5227855;28;20464;-47
2023/12/01 00:33:34;;;;;;;17.43;10.00;;;-3.90;99.90;;;;;;5246600;28;20588;-47
2023/12/01 00:36:05;;;;;;;16.10;10.23;;;-3.90;99.90;;;;;;5241863;28;20190;-48
2023/12/01 00:38:35;;;;;;;17.63;10.63;;;-3.90;99.90;;;;;;5248104;28;20241;-47
2023/12/01 00:41:07;;;;;;;21.43;10.97;;;-3.90;99.90;;;;;;5230941;28;20529;-49
2023/12/01 00:43:37;;;;;;;20.80;12.50;;;-3.90;99.90;;;;;;5245962;28;20213;-46
2023/12/01 00:46:08;;;;;;;21.60;11.43;;;-3.90;99.90;;;;;;5249580;28;20428;-47
2023/12/01 00:48:38;;;;;;;17.73;10.77;;;-4.00;99.90;;;;;;5249535;28;20216;-49
2023/12/01 00:51:19;;;;;;;14.73;9.70;;;-4.00;99.90;;;;;;5239143;28;20178;-49
2023/12/01 00:53:49;;;;;;;16.90;9.87;;;-4.10;99.90;;;;;;5229571;28;20189;-48
2023/12/01 00:56:20;;;;;;;18.23;10.43;;;-4.10;99.90;;;;;;5235044;28;20448;-47
2023/12/01 00:58:51;;;;;;;18.83;11.13;;;-4.20;99.90;;;;;;5231242;28;20930;-48
2023/12/01 01:01:22;;;;;;;18.63;10.30;;;-4.20;99.90;;;;;;5245803;28;20186;-48
2023/12/01 01:03:53;;;;;;;19.10;10.00;;;-4.30;99.90;;;;;;5232146;28;20209;-51
2023/12/01 01:06:23;;;;;;;18.97;11.03;;;-4.30;99.90;;;;;;5230106;28;20425;-47
2023/12/01 01:08:54;;;;;;;17.17;9.50;;;-4.30;99.90;;;;;;5248122;28;20209;-47
2023/12/01 01:11:25;;;;;;;19.43;10.40;;;-4.30;99.90;;;;;;5239158;28;20194;-47
2023/12/01 01:13:56;;;;;;;23.77;10.70;;;-4.40;99.90;;;;;;5244624;28;20648;-48
2023/12/01 01:16:27;;;;;;;20.50;10.33;;;-4.30;99.90;;;;;;5241886;28;20428;-46
2023/12/01 01:18:57;;;;;;;17.83;11.13;;;-4.40;99.90;;;;;;5229708;28;20211;-47
2023/12/01 01:21:28;;;;;;;25.27;12.43;;;-4.40;99.90;;;;;;5237894;28;20245;-48
2023/12/01 01:23:59;;;;;;;16.47;9.33;;;-4.50;99.90;;;;;;5241572;28;20206;-48
2023/12/01 01:26:29;;;;;;;20.53;8.83;;;-4.50;99.90;;;;;;5228205;28;20179;-47
2023/12/01 01:29:00;;;;;;;20.60;10.30;;;-4.50;99.90;;;;;;5249632;28;20198;-47
2023/12/01 01:31:31;;;;;;;21.20;10.00;;;-4.60;99.90;;;;;;5247803;28;20760;-48
2023/12/01 01:34:02;;;;;;;15.27;9.00;;;-4.60;99.90;;;;;;5251121;28;20190;-48
2023/12/01 01:36:32;;;;;;;15.93;9.73;;;-4.60;99.90;;;;;;5233091;28;20591;-46
2023/12/01 01:39:03;;;;;;;19.20;10.40;;;-4.50;99.90;;;;;;5227689;28;20296;-48
2023/12/01 01:41:33;;;;;;;15.83;9.77;;;-4.50;99.90;;;;;;5229986;28;20198;-47
2023/12/01 01:44:04;;;;;;;15.23;9.53;;;-4.50;99.90;;;;;;5234359;28;20202;-49
2023/12/01 01:46:36;;;;;;;18.50;10.37;;;-4.60;99.90;;;;;;5227373;28;20650;-47
2023/12/01 01:49:07;;;;;;;17.80;10.20;;;-4.60;99.90;;;;;;5238339;28;20202;-48
2023/12/01 01:51:39;;;;;;;18.97;10.30;;;-4.60;99.90;;;;;;5249262;28;20424;-48
2023/12/01 01:54:10;;;;;;;18.60;11.23;;;-4.70;99.90;;;;;;5246798;28;20266;-48
2023/12/01 01:56:41;;;;;;;19.70;10.40;;;-4.80;99.90;;;;;;5243816;28;20443;-47
2023/12/01 01:59:13;;;;;;;20.83;11.30;;;-4.80;99.90;;;;;;5242102;28;20472;-49
2023/12/01 02:01:44;;;;;;;17.37;11.13;;;-4.90;99.90;;;;;;5231979;28;20437;-47
2023/12/01 02:04:16;;;;;;;21.17;11.13;;;-4.90;99.90;;;;;;5227189;28;20823;-49
2023/12/01 02:06:46;;;;;;;16.10;10.20;;;-4.90;99.90;;;;;;5225141;28;20183;-48
2023/12/01 02:09:17;;;;;;;20.40;10.80;;;-4.90;99.90;;;;;;5245702;28;20567;-51
2023/12/01 02:11:48;;;;;;;20.47;10.13;;;-5.00;99.90;;;;;;5228953;28;20190;-47
2023/12/01 02:14:19;;;;;;;18.33;10.67;;;-5.00;99.90;;;;;;5220249;28;20650;-49
2023/12/01 02:16:50;;;;;;;24.90;11.53;;;-5.10;99.90;;;;;;5248245;28;20193;-49
2023/12/01 02:19:20;;;;;;;27.30;13.43;;;-5.20;99.90;;;;;;5227874;28;20217;-46
2023/12/01 02:21:51;;;;;;;19.33;11.80;;;-5.20;99.90;;;;;;5244348;28;20433;-49
2023/12/01 02:24:22;;;;;;;23.87;11.10;;;-5.20;99.90;;;;;;5227941;28;20643;-48
2023/12/01 02:26:52;;;;;;;26.17;13.47;;;-5.20;99.90;;;;;;5233836;28;20186;-49
2023/12/01 02:29:24;;;;;;;23.73;13.23;;;-5.20;99.90;;;;;;5232282;28;20197;-47
2023/12/01 02:31:55;;;;;;;25.20;12.03;;;-5.20;99.90;;;;;;5227110;28;20273;-47
2023/12/01 02:34:25;;;;;;;32.33;13.10;;;-5.20;99.90;;;;;;5251579;28;20507;-48
2023/12/01 02:36:58;;;;;;;20.27;12.03;;;-5.30;99.90;;;;;;5247176;28;20668;-47
2023/12/01 02:39:29;;;;;;;26.90;12.47;;;-5.30;99.90;;;;;;5249018;28;20198;-52
2023/12/01 02:41:59;;;;;;;22.80;10.03;;;-5.30;99.90;;;;;;5247466;28;20428;-47
2023/12/01 02:44:30;;;;;;;22.33;11.83;;;-5.30;99.90;;;;;;5243356;28;20511;-49
2023/12/01 02:47:00;;;;;;;19.23;10.43;;;-5.40;99.90;;;;;;5230018;28;20186;-48
2023/12/01 02:49:31;;;;;;;15.10;10.70;;;-5.50;99.90;;;;;;5227975;28;20229;-48
2023/12/01 02:52:02;;;;;;;16.20;9.53;;;-5.50;99.90;;;;;;5244602;28;20179;-47
2023/12/01 02:54:32;;;;;;;16.77;9.20;;;-5.60;99.90;;;;;;5245667;28;20189;-49
2023/12/01 02:57:03;;;;;;;12.50;8.23;;;-5.70;99.90;;;;;;5224413;28;20670;-48
2023/12/01 02:59:34;;;;;;;11.63;7.33;;;-5.70;99.90;;;;;;5238812;22;20238;-52
2023/12/01 03:02:05;;;;;;;13.20;7.90;;;-5.70;99.90;;;;;;5246671;28;20181;-50
2023/12/01 03:04:36;;;;;;;10.93;8.40;;;-5.70;99.90;;;;;;5229716;28;20469;-51
2023/12/01 03:07:06;;;;;;;9.70;7.70;;;-5.70;99.90;;;;;;5230696;28;20686;-53
2023/12/01 03:09:37;;;;;;;18.43;9.10;;;-5.80;99.90;;;;;;5230102;28;20198;-51
2023/12/01 03:12:08;;;;;;;21.67;9.47;;;-5.90;99.90;;;;;;5219309;28;20261;-52
2023/12/01 03:14:39;;;;;;;15.23;9.47;;;-5.90;99.90;;;;;;5239575;28;20182;-52
2023/12/01 03:17:09;;;;;;;15.13;8.63;;;-5.80;99.90;;;;;;5238032;28;20210;-53
2023/12/01 03:19:40;;;;;;;15.90;9.27;;;-5.70;99.90;;;;;;5251032;28;20343;-51
2023/12/01 03:22:11;;;;;;;12.23;8.40;;;-5.80;99.90;;;;;;5231009;28;20178;-51
2023/12/01 03:24:43;;;;;;;14.50;7.40;;;-5.80;99.90;;;;;;5242929;28;20210;-51
2023/12/01 03:27:17;;;;;;;11.57;7.43;;;-5.70;99.90;;;;;;5224818;28;20431;-53
2023/12/01 03:29:47;;;;;;;17.53;7.83;;;-5.70;99.90;;;;;;5229206;28;20519;-52
2023/12/01 03:32:19;;;;;;;10.00;6.90;;;-5.80;99.90;;;;;;5219269;28;20531;-50
2023/12/01 03:34:50;;;;;;;15.43;8.27;;;-5.80;99.90;;;;;;5230962;28;20232;-51
2023/12/01 03:37:21;;;;;;;14.17;8.57;;;-5.80;99.90;;;;;;5230290;28;20449;-53
2023/12/01 03:39:51;;;;;;;16.33;8.80;;;-5.80;99.90;;;;;;5245861;28;20999;-50
2023/12/01 03:42:22;;;;;;;12.63;7.50;;;-5.80;99.90;;;;;;5251620;28;20617;-52
2023/12/01 03:44:53;;;;;;;9.73;7.30;;;-5.80;99.90;;;;;;5226894;28;20284;-51
2023/12/01 03:47:24;;;;;;;13.47;7.00;;;-5.90;99.90;;;;;;5231953;28;20186;-53
2023/12/01 03:49:54;;;;;;;13.63;7.87;;;-5.80;99.90;;;;;;5232503;28;20548;-51
2023/12/01 03:52:25;;;;;;;14.57;7.20;;;-5.80;99.90;;;;;;5235545;28;20534;-52
2023/12/01 03:54:58;;;;;;;10.90;6.60;;;-5.80;99.90;;;;;;5234694;28;20182;-52
2023/12/01 03:57:29;;;;;;;12.17;7.97;;;-5.80;99.90;;;;;;5230350;28;20888;-51
2023/12/01 04:00:00;;;;;;;11.73;7.00;;;-5.90;99.90;;;;;;5254951;28;20520;-51
2023/12/01 04:02:31;;;;;;;13.10;8.57;;;-5.90;99.90;;;;;;5247527;28;20174;-50
2023/12/01 04:05:02;;;;;;;12.30;7.37;;;-5.90;99.90;;;;;;5247037;28;20574;-51
2023/12/01 04:07:34;;;;;;;12.17;7.07;;;-5.90;99.90;;;;;;5241458;28;20459;-51
2023/12/01 04:10:10;;;;;;;12.43;7.73;;;-5.90;99.90;;;;;;5231450;28;21010;-51
2023/12/01 04:12:44;;;;;;;17.70;8.70;;;-6.00;99.90;;;;;;5255422;28;20407;-51
2023/12/01 04:15:19;;;;;;;17.30;7.77;;;-6.00;99.90;;;;;;5217498;28;20834;-51
2023/12/01 04:17:50;;;;;;;16.70;8.40;;;-5.90;99.90;;;;;;5253112;28;20442;-52
2023/12/01 04:20:21;;;;;;;14.20;8.20;;;-6.00;99.90;;;;;;5251666;28;20458;-52
2023/12/01 04:22:55;;;;;;;9.57;7.30;;;-5.90;99.90;;;;;;5255568;28;20178;-52
2023/12/01 04:25:27;;;;;;;11.60;6.97;;;-5.90;99.90;;;;;;5238782;28;20461;-51
2023/12/01 04:27:58;;;;;;;15.77;7.90;;;-5.80;99.90;;;;;;5260445;28;20408;-51
2023/12/01 04:30:30;;;;;;;10.10;6.50;;;-5.70;99.90;;;;;;5238871;28;20448;-51
2023/12/01 04:33:01;;;;;;;8.90;6.00;;;-5.70;99.90;;;;;;5255562;28;21014;-50
2023/12/01 04:35:34;;;;;;;12.73;7.03;;;-5.70;99.90;;;;;;5231964;28;20535;-51
2023/12/01 04:38:05;;;;;;;15.77;7.57;;;-5.70;99.90;;;;;;5239011;28;20459;-51
2023/12/01 04:40:39;;;;;;;10.37;6.40;;;-5.70;99.90;;;;;;5255522;28;20428;-51
2023/12/01 04:43:09;;;;;;;9.17;6.30;;;-5.70;99.90;;;;;;5222230;28;20213;-51
2023/12/01 04:45:40;;;;;;;7.23;5.90;;;-5.60;99.90;;;;;;5253690;28;20952;-51
2023/12/01 04:48:11;;;;;;;10.97;6.60;;;-5.60;99.90;;;;;;5235362;28;20197;-52
2023/12/01 04:50:48;;;;;;;10.30;5.93;;;-5.60;99.90;;;;;;5252965;28;20284;-50
2023/12/01 04:53:19;;;;;;;11.97;7.40;;;-5.60;99.90;;;;;;5243075;28;20433;-50
2023/12/01 04:55:50;;;;;;;13.67;6.53;;;-5.70;99.90;;;;;;5252212;28;20482;-50
2023/12/01 04:58:20;;;;;;;11.27;7.30;;;-5.70;99.90;;;;;;5228364;28;20198;-50
2023/12/01 05:00:51;;;;;;;12.13;7.43;;;-5.70;99.90;;;;;;5234926;28;20928;-52
2023/12/01 05:03:22;;;;;;;10.57;7.17;;;-5.80;99.90;;;;;;5236162;28;20181;-51
2023/12/01 05:05:53;;;;;;;13.03;6.60;;;-5.80;99.90;;;;;;5240792;28;20181;-53
2023/12/01 05:08:27;;;;;;;10.83;6.93;;;-5.90;99.90;;;;;;5226188;28;20191;-51
2023/12/01 05:10:59;;;;;;;16.27;8.07;;;-5.90;99.90;;;;;;5235170;28;20425;-51
2023/12/01 05:13:30;;;;;;;11.70;8.00;;;-5.90;99.90;;;;;;5240338;28;20432;-51
2023/12/01 05:16:00;;;;;;;14.23;8.30;;;-5.90;99.90;;;;;;5248033;28;20483;-52
2023/12/01 05:18:31;;;;;;;10.77;7.70;;;-5.90;99.90;;;;;;5235588;28;20523;-51
2023/12/01 05:21:08;;;;;;;11.83;7.30;;;-6.00;99.90;;;;;;5233472;28;20183;-51
2023/12/01 05:23:38;;;;;;;20.13;7.93;;;-6.00;99.90;;;;;;5253495;28;20265;-51
2023/12/01 05:26:11;;;;;;;13.00;8.03;;;-6.00;99.90;;;;;;5235956;28;20432;-52
2023/12/01 05:28:41;;;;;;;14.73;8.67;;;-6.00;99.90;;;;;;5243521;28;20281;-53
2023/12/01 05:31:12;;;;;;;15.37;8.40;;;-6.00;99.90;;;;;;5246476;28;20559;-52
2023/12/01 05:33:46;;;;;;;17.20;10.03;;;-6.10;99.90;;;;;;5239976;28;20191;-53
2023/12/01 05:36:16;;;;;;;12.77;9.30;;;-6.10;99.90;;;;;;5233555;28;20638;-52
2023/12/01 05:38:47;;;;;;;19.20;9.90;;;-6.10;99.90;;;;;;5238808;28;20473;-52
2023/12/01 05:41:19;;;;;;;17.13;9.33;;;-6.30;99.90;;;;;;5233104;28;20189;-52
2023/12/01 05:43:49;;;;;;;15.93;8.53;;;-6.30;99.90;;;;;;5242382;28;20201;-52
2023/12/01 05:46:20;;;;;;;13.60;9.80;;;-6.30;99.90;;;;;;5250566;28;20444;-52
2023/12/01 05:48:51;;;;;;;14.63;9.93;;;-6.40;99.90;;;;;;5259866;28;20206;-52
2023/12/01 05:51:22;;;;;;;23.77;11.23;;;-6.10;99.90;;;;;;5225061;28;20178;-53
2023/12/01 05:53:53;;;;;;;17.87;10.40;;;-6.50;99.90;;;;;;5241920;28;20432;-51
2023/12/01 05:56:24;;;;;;;17.93;9.47;;;-6.50;99.90;;;;;;5249638;28;20793;-52
2023/12/01 05:58:55;;;;;;;18.17;10.50;;;-6.50;99.90;;;;;;5246036;28;20492;-52
2023/12/01 06:01:25;;;;;;;19.20;10.40;;;-6.40;99.90;;;;;;5249801;28;20190;-52
2023/12/01 06:03:56;;;;;;;22.30;10.50;;;-6.50;99.90;;;;;;5265371;28;20213;-51
2023/12/01 06:06:27;;;;;;;15.77;9.10;;;-6.50;99.90;;;;;;5256801;28;20341;-51
2023/12/01 06:08:58;;;;;;;19.23;10.00;;;-6.40;99.90;;;;;;5248856;28;21077;-51
2023/12/01 06:11:28;;;;;;;19.10;9.10;;;-6.40;99.90;;;;;;5229113;28;20198;-53
2023/12/01 06:14:00;;;;;;;20.27;10.00;;;-6.40;99.90;;;;;;5228264;28;20189;-52
2023/12/01 06:16:31;;;;;;;19.20;9.90;;;-6.30;99.90;;;;;;5256519;28;20187;-53
2023/12/01 06:19:02;;;;;;;26.57;9.97;;;-6.30;99.90;;;;;;5231845;28;20516;-51
2023/12/01 06:21:32;;;;;;;16.13;9.40;;;-6.30;99.90;;;;;;5249454;28;20225;-52
2023/12/01 06:24:04;;;;;;;18.93;10.00;;;-6.30;99.90;;;;;;5232516;28;20581;-53
2023/12/01 06:26:35;;;;;;;17.30;9.40;;;-6.30;99.90;;;;;;5226154;28;20534;-52
2023/12/01 06:29:06;;;;;;;22.80;11.03;;;-6.30;99.90;;;;;;5248705;28;20452;-51
2023/12/01 06:31:37;;;;;;;18.63;9.67;;;-6.30;99.90;;;;;;5232811;28;21037;-51
2023/12/01 06:34:08;;;;;;;17.97;9.77;;;-6.30;99.90;;;;;;5230775;28;20444;-53
2023/12/01 06:36:40;;;;;;;19.07;10.20;;;-6.40;99.90;;;;;;5253689;28;20549;-52
2023/12/01 06:39:12;;;;;;;17.93;9.70;;;-6.40;99.90;;;;;;5256021;28;20198;-51
2023/12/01 06:41:43;;;;;;;17.70;10.53;;;-6.30;99.90;;;;;;5234853;28;20428;-51
2023/12/01 06:44:14;;;;;;;18.93;11.00;;;-6.30;99.90;;;;;;5255707;28;20596;-51
2023/12/01 06:46:45;;;;;;;18.00;11.47;;;-6.30;99.90;;;;;;5233677;28;20205;-52
2023/12/01 06:49:16;;;;;;;29.80;11.20;;;-6.30;99.90;;;;;;5237620;28;20205;-50
2023/12/01 06:51:46;;;;;;;20.77;11.00;;;-6.20;99.90;;;;;;5238614;28;20425;-51
2023/12/01 06:54:17;;;;;;;21.03;10.93;;;-6.20;99.90;;;;;;5232969;28;20178;-54
2023/12/01 06:56:47;;;;;;;17.47;10.03;;;-6.20;99.90;;;;;;5239213;28;20217;-52
2023/12/01 06:59:18;;;;;;;19.80;9.63;;;-6.20;99.90;;;;;;5252422;28;20213;-52
2023/12/01 07:01:49;;;;;;;21.80;10.90;;;-6.10;99.90;;;;;;5235545;28;20185;-51
2023/12/01 07:04:20;;;;;;;22.50;11.10;;;-6.00;99.90;;;;;;5237596;28;20217;-53
2023/12/01 07:06:51;;;;;;;18.20;11.00;;;-6.00;99.90;;;;;;5263282;28;20788;-52
2023/12/01 07:09:21;;;;;;;21.10;11.43;;;-6.00;99.90;;;;;;5239972;28;20206;-52
2023/12/01 07:11:53;;;;;;;19.30;11.23;;;-5.90;99.90;;;;;;5243370;28;20181;-51
2023/12/01 07:14:24;;;;;;;19.70;12.07;;;-5.90;99.90;;;;;;5230828;28;20229;-54
2023/12/01 07:16:55;;;;;;;32.20;16.97;;;-5.90;99.90;;;;;;5229449;28;20548;-52
2023/12/01 07:19:25;;;;;;;22.30;11.83;;;-5.90;99.90;;;;;;5235865;28;20221;-53
2023/12/01 07:21:56;;;;;;;19.90;10.70;;;-6.00;99.90;;;;;;5218728;28;20217;-52
2023/12/01 07:24:28;;;;;;;24.43;11.20;;;-6.00;99.90;;;;;;5233486;28;20194;-52
2023/12/01 07:26:59;;;;;;;23.80;11.63;;;-6.00;99.90;;;;;;5222362;28;20435;-57
2023/12/01 07:29:29;;;;;;;24.37;11.57;;;-5.90;99.90;;;;;;5227389;28;20456;-53
2023/12/01 07:32:01;;;;;;;22.77;11.13;;;-5.90;99.90;;;;;;5229352;28;20452;-53
2023/12/01 07:34:32;;;;;;;23.03;12.03;;;-5.80;99.90;;;;;;5251561;28;20315;-53
2023/12/01 07:37:10;;;;;;;17.67;9.90;;;-5.80;99.90;;;;;;5234522;28;20451;-53
2023/12/01 07:39:40;;;;;;;18.97;9.60;;;-5.80;99.90;;;;;;5239686;28;20698;-52
2023/12/01 07:42:11;;;;;;;15.80;10.10;;;-5.80;99.90;;;;;;5235872;28;20939;-52
2023/12/01 07:44:42;;;;;;;18.33;10.80;;;-5.80;99.90;;;;;;5251297;28;20202;-52
2023/12/01 07:47:13;;;;;;;27.47;10.93;;;-5.90;99.90;;;;;;5245613;28;20519;-52
2023/12/01 07:49:44;;;;;;;17.27;10.13;;;-6.00;99.90;;;;;;5229770;28;20732;-51
2023/12/01 07:52:14;;;;;;;22.87;10.40;;;-6.00;99.90;;;;;;5231239;28;20424;-54
2023/12/01 07:54:46;;;;;;;16.03;8.97;;;-6.10;99.90;;;;;;5235649;28;20182;-54
2023/12/01 07:57:16;;;;;;;19.00;11.40;;;-6.10;99.90;;;;;;5233927;28;20239;-52
2023/12/01 07:59:47;;;;;;;18.73;9.90;;;-6.10;99.90;;;;;;5231644;28;20492;-51
2023/12/01 08:02:18;;;;;;;13.33;9.07;;;-6.20;99.90;;;;;;5223760;28;20182;-53
2023/12/01 08:04:48;;;;;;;12.73;8.57;;;-6.20;99.90;;;;;;5232544;28;20521;-53
2023/12/01 08:07:19;;;;;;;18.23;9.40;;;-6.20;99.90;;;;;;5231894;28;20523;-55
2023/12/01 08:09:50;;;;;;;16.40;9.90;;;-6.10;99.90;;;;;;5249737;28;20198;-53
2023/12/01 08:12:24;;;;;;;26.87;10.57;;;-6.00;99.90;;;;;;5247429;28;20175;-52
2023/12/01 08:14:54;;;;;;;16.70;10.30;;;-5.90;99.90;;;;;;5215808;28;20209;-56
2023/12/01 08:17:25;;;;;;;21.43;11.20;;;-5.80;99.90;;;;;;5227197;28;20429;-52
2023/12/01 08:19:56;;;;;;;24.40;9.30;;;-5.60;99.90;;;;;;5237771;28;20552;-51
2023/12/01 08:22:28;;;;;;;14.33;9.23;;;-5.50;99.90;;;;;;5227943;28;20215;-53
2023/12/01 08:25:00;;;;;;;17.53;10.07;;;-5.50;99.90;;;;;;5228510;28;20202;-53
2023/12/01 08:27:31;;;;;;;20.83;10.00;;;-5.40;99.90;;;;;;5242698;28;20447;-51
2023/12/01 08:30:03;;;;;;;19.27;11.33;;;-5.30;99.90;;;;;;5235141;28;20444;-52
2023/12/01 08:32:34;;;;;;;16.97;9.13;;;-5.30;99.90;;;;;;5241838;28;20509;-54
2023/12/01 08:35:06;;;;;;;20.53;10.07;;;-5.30;99.90;;;;;;5224462;28;20959;-53
2023/12/01 08:37:37;;;;;;;21.13;10.20;;;-5.20;99.90;;;;;;5224790;28;20425;-53
2023/12/01 08:40:11;;;;;;;14.80;9.90;;;-5.20;99.90;;;;;;5227566;28;20451;-53
2023/12/01 08:42:43;;;;;;;19.80;10.40;;;-5.10;99.90;;;;;;5212507;28;20192;-53
2023/12/01 08:45:13;;;;;;;19.90;10.37;;;-5.10;99.90;;;;;;5235614;28;20453;-53
2023/12/01 08:47:44;;;;;;;21.00;10.37;;;-5.00;99.90;;;;;;5231526;28;20442;-52
2023/12/01 08:50:17;;;;;;;20.43;9.90;;;-5.10;99.90;;;;;;5236593;28;20186;-52
2023/12/01 08:52:48;;;;;;;17.67;9.90;;;-5.10;99.90;;;;;;5238245;28;20214;-52
2023/12/01 08:55:19;;;;;;;24.13;11.37;;;-5.10;99.90;;;;;;5243160;28;20452;-52
2023/12/01 08:57:50;;;;;;;20.10;9.60;;;-4.90;99.90;;;;;;5236157;28;20191;-52
2023/12/01 09:00:21;;;;;;;18.77;11.50;;;-4.90;99.90;;;;;;5168022;23;20236;-48
2023/12/01 09:02:52;;;;;;;19.33;10.73;;;-4.80;99.90;;;;;;5145380;28;20437;-48
2023/12/01 09:05:24;;;;;;;19.53;11.17;;;-4.80;99.90;;;;;;5158248;28;20209;-48
2023/12/01 09:07:54;;;;;;;15.13;9.50;;;-4.90;99.90;;;;;;5134860;28;20182;-48
2023/12/01 09:10:26;;;;;;;19.73;10.00;;;-4.90;99.90;;;;;;5157425;28;20449;-47
2023/12/01 09:12:57;;;;;;;19.70;9.27;;;-4.90;99.90;;;;;;5155611;28;20185;-47
2023/12/01 09:15:27;;;;;;;16.10;9.50;;;-4.80;99.90;;;;;;5150685;28;21018;-47
2023/12/01 09:17:58;;;;;;;20.13;10.27;;;-4.80;99.90;;;;;;5150959;28;20190;-52
2023/12/01 09:20:29;;;;;;;19.87;10.07;;;-4.80;99.90;;;;;;5157572;28;20233;-49
2023/12/01 09:23:00;;;;;;;17.77;9.77;;;-4.70;99.90;;;;;;5156885;28;20587;-48
2023/12/01 09:25:30;;;;;;;16.77;10.37;;;-4.50;99.90;;;;;;5159350;28;20468;-48
2023/12/01 09:28:01;;;;;;;24.13;11.33;;;-4.40;99.90;;;;;;5164116;28;20263;-48
2023/12/01 09:30:32;;;;;;;25.23;12.90;;;-4.30;99.90;;;;;;5152491;28;20799;-49
2023/12/01 09:33:02;;;;;;;20.13;11.47;;;-4.20;99.90;;;;;;5144140;28;20190;-50
2023/12/01 09:35:33;;;;;;;23.97;11.60;;;-4.20;99.90;;;;;;5141584;28;20206;-49
2023/12/01 09:38:04;;;;;;;20.70;11.43;;;-4.10;99.90;;;;;;5147034;28;20178;-51
2023/12/01 09:40:41;;;;;;;19.63;10.50;;;-3.90;99.90;;;;;;5187160;28;20223;-50
2023/12/01 09:43:13;;;;;;;20.20;11.00;;;-3.80;99.90;;;;;;5143281;28;20960;-50
2023/12/01 09:45:44;;;;;;;19.00;11.47;;;-3.80;99.90;;;;;;5152896;28;20514;-51
2023/12/01 09:48:18;;;;;;;25.17;13.20;;;-3.80;99.90;;;;;;5158923;28;20933;-51
2023/12/01 09:50:49;;;;;;;22.73;11.67;;;-3.70;99.90;;;;;;5148414;28;20771;-51
2023/12/01 09:53:20;;;;;;;18.80;10.73;;;-3.60;99.90;;;;;;5147146;28;20436;-49
2023/12/01 09:55:51;;;;;;;17.17;10.63;;;-3.50;99.90;;;;;;5155992;28;20429;-50
2023/12/01 09:58:25;;;;;;;17.20;10.90;;;-3.50;99.90;;;;;;5156740;28;20606;-51
2023/12/01 10:00:56;;;;;;;18.03;9.90;;;-3.40;99.90;;;;;;5164943;28;20191;-49
2023/12/01 10:03:28;;;;;;;26.67;12.90;;;-3.30;99.90;;;;;;5145912;28;20458;-52
2023/12/01 10:05:58;;;;;;;17.67;10.80;;;-3.30;99.90;;;;;;5165216;28;20187;-50
2023/12/01 10:08:32;;;;;;;19.57;10.90;;;-3.10;99.90;;;;;;5153844;28;20972;-51
2023/12/01 10:11:19;;;;;;;17.60;10.10;;;-3.00;99.90;;;;;;5162564;28;20178;-50
2023/12/01 10:13:51;;;;;;;18.17;9.90;;;-2.90;99.90;;;;;;5142288;28;20412;-49
2023/12/01 10:16:21;;;;;;;23.83;8.70;;;-3.00;99.90;;;;;;5161146;28;20785;-49
2023/12/01 10:18:56;;;;;;;21.50;10.53;;;-3.00;99.90;;;;;;5151980;28;20549;-52
2023/12/01 10:21:44;;;;;;;17.20;9.80;;;-3.10;99.90;;;;;;5144440;28;20235;-50
2023/12/01 10:24:17;;;;;;;19.70;10.27;;;-3.10;99.90;;;;;;5146443;28;20466;-50
2023/12/01 10:26:49;;;;;;;14.20;9.60;;;-3.00;99.90;;;;;;5163497;28;20528;-50
2023/12/01 10:29:28;;;;;;;17.43;9.37;;;-2.90;99.90;;;;;;5154331;28;20465;-49
2023/12/01 10:32:18;;;;;;;24.23;11.00;;;-2.80;99.90;;;;;;5148663;28;20404;-50
2023/12/01 10:34:52;;;;;;;18.77;10.43;;;-2.80;99.90;;;;;;5149608;28;20483;-49
2023/12/01 10:37:23;;;;;;;22.77;11.97;;;-2.60;99.90;;;;;;5160437;28;20420;-51
2023/12/01 10:39:54;;;;;;;16.93;10.47;;;-2.60;99.90;;;;;;5163955;28;20509;-51
2023/12/01 10:42:27;;;;;;;15.97;10.53;;;-2.50;99.90;;;;;;5154991;28;20436;-51
2023/12/01 10:45:04;;;;;;;21.17;12.00;;;-2.50;99.90;;;;;;5142387;28;20473;-50
2023/12/01 10:47:36;;;;;;;19.67;11.60;;;-2.60;99.90;;;;;;5162903;28;20447;-50
2023/12/01 10:50:08;;;;;;;19.17;11.33;;;-2.60;99.90;;;;;;5162117;28;20468;-50
2023/12/01 10:52:42;;;;;;;26.30;13.60;;;-2.50;99.90;;;;;;5167022;28;20495;-51
2023/12/01 10:55:13;;;;;;;22.57;12.27;;;-2.40;99.90;;;;;;5161911;28;20438;-50
2023/12/01 10:57:45;;;;;;;18.63;11.77;;;-2.40;99.90;;;;;;5161774;28;20550;-52
2023/12/01 11:00:31;;;;;;;20.43;12.50;;;-2.40;99.90;;;;;;5145200;28;20476;-49
2023/12/01 11:03:03;;;;;;;25.17;11.70;;;-2.40;99.90;;;;;;5147444;28;20429;-52
2023/12/01 11:05:36;;;;;;;25.00;11.70;;;-2.30;99.90;;;;;;5145370;28;20465;-50
2023/12/01 11:08:13;;;;;;;19.10;12.20;;;-2.20;99.90;;;;;;5162235;28;20421;-52
2023/12/01 11:11:02;;;;;;;21.17;11.37;;;-2.10;99.90;;;;;;5163954;28;20515;-50
2023/12/01 11:14:22;;;;;;;26.20;12.17;;;-1.90;99.90;;;;;;5151552;28;20521;-51
2023/12/01 11:16:54;;;;;;;26.57;11.80;;;-1.80;99.90;;;;;;5159728;28;20440;-51
2023/12/01 11:19:34;;;;;;;20.10;11.80;;;-1.70;99.90;;;;;;5138406;28;20441;-51
2023/12/01 11:22:27;;;;;;;20.23;11.30;;;-1.70;99.90;;;;;;5143041;28;20532;-51
2023/12/01 11:24:58;;;;;;;21.90;12.73;;;-1.80;99.90;;;;;;5145901;28;21004;-52
2023/12/01 11:27:31;;;;;;;25.43;11.10;;;-1.70;99.90;;;;;;5143443;28;21692;-48
2023/12/01 11:30:07;;;;;;;22.60;11.83;;;-1.60;99.90;;;;;;5149077;28;20460;-50
2023/12/01 11:32:40;;;;;;;21.40;13.10;;;-1.60;99.90;;;;;;5166002;28;20436;-50
2023/12/01 11:35:11;;;;;;;24.33;10.20;;;-1.50;99.90;;;;;;5159444;28;20424;-53
2023/12/01 11:38:04;;;;;;;16.10;10.13;;;-1.40;99.90;;;;;;5155982;28;20487;-53
2023/12/01 11:40:41;;;;;;;17.70;10.13;;;-1.50;99.90;;;;;;5137815;28;20433;-52
2023/12/01 11:43:12;;;;;;;17.93;10.70;;;-1.50;99.90;;;;;;5156514;28;20490;-49
2023/12/01 11:45:44;;;;;;;19.23;11.83;;;-1.40;99.90;;;;;;5149506;28;20551;-49
2023/12/01 11:48:14;;;;;;;20.97;12.00;;;-1.50;99.90;;;;;;5161121;28;20219;-50
2023/12/01 11:50:46;;;;;;;23.53;12.37;;;-1.40;99.90;;;;;;5167840;28;20440;-54
2023/12/01 11:53:18;;;;;;;18.23;11.60;;;-1.40;99.90;;;;;;5191015;28;20177;-50
2023/12/01 11:55:50;;;;;;;22.90;11.70;;;-1.20;99.90;;;;;;5147668;28;20432;-48
2023/12/01 11:58:21;;;;;;;18.83;10.17;;;-1.20;99.90;;;;;;5146586;28;20967;-51
2023/12/01 12:00:53;;;;;;;17.60;10.10;;;-1.20;99.90;;;;;;5138753;28;21133;-49
2023/12/01 12:03:23;;;;;;;19.53;11.80;;;-1.30;99.90;;;;;;5150834;28;20479;-50
2023/12/01 12:05:54;;;;;;;15.67;10.40;;;-1.30;99.90;;;;;;5166627;28;20503;-49
2023/12/01 12:08:26;;;;;;;35.70;12.77;;;-1.20;99.90;;;;;;5149154;28;20201;-51
2023/12/01 12:10:56;;;;;;;22.00;11.53;;;-1.20;99.90;;;;;;5157950;28;20487;-49
2023/12/01 12:13:27;;;;;;;18.73;11.53;;;-1.30;99.90;;;;;;5159247;28;20473;-50
2023/12/01 12:15:58;;;;;;;17.27;10.50;;;-1.40;99.90;;;;;;5158291;28;20182;-50
2023/12/01 12:18:30;;;;;;;19.07;11.33;;;-1.40;99.90;;;;;;5145662;28;20700;-50
2023/12/01 12:21:04;;;;;;;18.43;10.10;;;-1.40;99.90;;;;;;5148629;28;20444;-56
2023/12/01 12:23:36;;;;;;;24.70;11.83;;;-1.40;99.90;;;;;;5165292;28;20471;-50
2023/12/01 12:26:18;;;;;;;18.70;10.90;;;-1.60;99.90;;;;;;5168968;28;20428;-53
2023/12/01 12:29:03;;;;;;;34.13;15.50;;;-1.60;99.90;;;;;;5154813;28;20464;-49
2023/12/01 12:31:40;;;;;;;19.67;11.97;;;-1.60;99.90;;;;;;5142137;28;20499;-49
2023/12/01 12:34:10;;;;;;;24.30;11.83;;;-1.60;99.90;;;;;;5145930;28;20435;-49
2023/12/01 12:36:43;;;;;;;26.10;11.33;;;-1.70;99.90;;;;;;5142735;28;20445;-50
2023/12/01 12:39:16;;;;;;;17.17;10.70;;;-1.70;99.90;;;;;;5147094;28;20207;-49
2023/12/01 12:41:59;;;;;;;25.63;13.10;;;-1.70;99.90;;;;;;5143533;28;20437;-49
2023/12/01 12:44:30;;;;;;;22.10;11.67;;;-1.70;99.90;;;;;;5158056;28;21017;-49
2023/12/01 12:47:02;;;;;;;22.00;11.90;;;-1.80;99.90;;;;;;5179689;28;20433;-51
2023/12/01 12:49:33;;;;;;;26.60;13.47;;;-1.90;99.90;;;;;;5157967;28;20213;-50
2023/12/01 12:52:04;;;;;;;31.53;15.80;;;-1.90;99.90;;;;;;5143775;28;20480;-52
2023/12/01 12:54:35;;;;;;;23.43;12.63;;;-1.90;99.90;;;;;;5142552;28;20437;-48